Time;durP1;ratioP1;P1;durP2;ratioP2;P2;SDS_P1;SDS_P2;PMS_P1;PMS_P2;Temp;Humidity;BMP_temperature;BMP_pressure;BME280_temperature;BME280_humidity;BME280_pressure;Samples;Min_cycle;Max_cycle;Signal;HPM_P1;HPM_P2
2022/10/15 08:53:02;;;;;;;0.70;0.50;;;;;;;16.21;100.00;98351.50;5165365;27;20328;-76
2022/10/15 08:55:35;;;;;;;0.63;0.63;;;;;;;16.69;100.00;98343.41;5147912;27;39724;-77
2022/10/15 08:58:12;;;;;;;1.27;0.60;;;;;;;17.19;100.00;98359.88;5162399;27;42482;-77
2022/10/15 09:00:44;;;;;;;0.40;0.40;;;;;;;17.53;100.00;98363.66;5148008;27;43146;-77
2022/10/15 09:03:26;;;;;;;0.50;0.40;;;;;;;17.81;100.00;98361.75;5148005;27;42252;-77
2022/10/15 09:06:02;;;;;;;0.30;0.30;;;;;;;18.08;100.00;98358.13;5147754;27;40150;-76
2022/10/15 09:08:41;;;;;;;0.83;0.50;;;;;;;18.31;98.95;98364.69;5146112;27;42724;-78
2022/10/15 09:11:16;;;;;;;0.80;0.47;;;;;;;18.55;97.09;98357.78;5163380;27;43825;-77
2022/10/15 09:13:45;;;;;;;0.40;0.40;;;;;;;18.68;95.29;98344.81;5145951;27;43105;-77
2022/10/15 09:16:16;;;;;;;0.60;0.50;;;;;;;18.96;94.20;98359.75;5130478;27;41460;-79
2022/10/15 09:18:47;;;;;;;0.70;0.60;;;;;;;19.13;92.71;98359.81;5149375;27;41665;-78
2022/10/15 09:21:17;;;;;;;0.77;0.70;;;;;;;19.29;91.57;98365.22;5146966;27;42746;-76
2022/10/15 09:23:46;;;;;;;0.50;0.50;;;;;;;19.41;90.35;98358.53;5165273;27;43091;-79
2022/10/15 09:26:24;;;;;;;0.80;0.70;;;;;;;19.46;89.65;98361.59;5165260;27;39995;-78
2022/10/15 09:28:58;;;;;;;1.80;0.80;;;;;;;19.43;89.37;98367.28;5162279;27;41806;-76
2022/10/15 09:31:31;;;;;;;0.60;0.60;;;;;;;19.46;89.16;98372.34;5147382;27;41720;-78
2022/10/15 09:34:04;;;;;;;0.70;0.70;;;;;;;19.68;87.99;98361.00;5162423;27;42890;-78
2022/10/15 09:36:37;;;;;;;1.47;0.83;;;;;;;20.08;86.63;98360.19;5163471;27;39940;-77
2022/10/15 09:39:22;;;;;;;1.40;0.70;;;;;;;20.42;85.53;98370.81;5144801;27;42504;-79
2022/10/15 09:41:58;;;;;;;0.60;0.60;;;;;;;20.61;83.48;98368.75;5130703;27;42984;-80
2022/10/15 09:44:37;;;;;;;0.70;0.70;;;;;;;20.74;82.96;98372.59;5146085;27;43211;-79
2022/10/15 09:47:15;;;;;;;0.77;0.77;;;;;;;20.81;81.41;98375.44;5163800;27;40918;-79
2022/10/15 09:49:43;;;;;;;2.10;0.90;;;;;;;20.79;80.53;98364.00;5147690;27;40737;-76
2022/10/15 09:52:20;;;;;;;0.67;0.67;;;;;;;20.98;79.57;98368.16;5148027;27;43340;-77
2022/10/15 09:55:00;;;;;;;0.73;0.73;;;;;;;21.30;79.52;98369.91;5144530;27;42160;-78
2022/10/15 09:57:30;;;;;;;1.90;0.70;;;;;;;21.58;78.02;98365.72;5148542;27;39891;-76
2022/10/15 10:00:00;;;;;;;1.23;0.60;;;;;;;21.81;77.65;98369.28;5147893;27;40614;-81
2022/10/15 10:02:29;;;;;;;1.17;0.93;;;;;;;22.15;75.86;98362.66;5144350;27;42804;-78
2022/10/15 10:04:56;;;;;;;0.80;0.70;;;;;;;22.59;75.06;98357.38;5151197;27;41971;-79
2022/10/15 10:07:35;;;;;;;1.60;1.10;;;;;;;23.13;72.94;98360.66;5133408;27;38875;-78
2022/10/15 10:10:07;;;;;;;1.20;0.63;;;;;;;23.70;71.73;98351.84;5133770;27;42484;-78
2022/10/15 10:12:37;;;;;;;0.50;0.50;;;;;;;24.34;68.04;98371.66;5134320;27;42494;-80
2022/10/15 10:15:24;;;;;;;2.50;0.80;;;;;;;25.02;66.41;98380.06;5116546;27;41154;-80
2022/10/15 10:17:52;;;;;;;1.00;0.80;;;;;;;25.22;65.04;98391.84;5133895;27;38780;-81
2022/10/15 10:20:21;;;;;;;0.50;0.50;;;;;;;24.88;64.51;98383.69;5134632;27;41886;-80
2022/10/15 10:22:51;;;;;;;0.83;0.60;;;;;;;24.47;65.38;98370.94;5142724;27;43339;-80
2022/10/15 10:25:42;;;;;;;0.83;0.83;;;;;;;24.24;66.19;98397.34;5141913;27;43256;-79
2022/10/15 10:28:17;;;;;;;0.60;0.60;;;;;;;23.88;65.46;98402.78;5140460;27;40455;-78
2022/10/15 10:30:53;;;;;;;1.13;0.60;;;;;;;23.34;66.68;98356.38;5140708;27;40630;-80
2022/10/15 10:33:27;;;;;;;1.93;0.77;;;;;;;23.33;67.28;98387.97;5140238;27;42823;-79
2022/10/15 10:35:57;;;;;;;1.73;0.80;;;;;;;23.18;67.77;98396.06;5137228;27;44189;-78
2022/10/15 10:38:27;;;;;;;0.70;0.70;;;;;;;23.02;67.84;98390.84;5133495;27;38889;-81
2022/10/15 10:41:04;;;;;;;0.90;0.80;;;;;;;22.82;67.03;98397.81;5134162;27;42769;-80
2022/10/15 10:43:32;;;;;;;0.70;0.60;;;;;;;22.75;67.43;98394.16;5130362;27;43714;-79
2022/10/15 10:46:02;;;;;;;0.87;0.60;;;;;;;22.83;67.68;98391.41;5132820;27;42050;-78
2022/10/15 10:48:41;;;;;;;0.50;0.50;;;;;;;22.98;66.26;98394.97;5133327;27;38786;-80
2022/10/15 10:51:12;;;;;;;0.50;0.50;;;;;;;23.25;65.64;98402.38;5132615;27;40672;-81
2022/10/15 10:53:51;;;;;;;0.50;0.50;;;;;;;23.31;65.22;98392.72;5133088;27;42250;-82
2022/10/15 10:56:23;;;;;;;0.53;0.53;;;;;;;23.38;64.65;98407.13;5132112;27;43070;-78
2022/10/15 10:58:59;;;;;;;0.40;0.40;;;;;;;23.32;64.63;98407.06;5133144;27;40029;-78
2022/10/15 11:01:28;;;;;;;1.00;0.70;;;;;;;23.55;64.57;98408.63;5132159;27;40330;-80
2022/10/15 11:03:56;;;;;;;0.70;0.70;;;;;;;23.92;63.85;98415.72;5132570;27;42945;-78
2022/10/15 11:06:42;;;;;;;0.60;0.60;;;;;;;24.18;63.14;98409.75;5132647;27;42364;-79
2022/10/15 11:09:22;;;;;;;0.50;0.50;;;;;;;24.47;62.21;98400.69;5129674;27;39989;-78
2022/10/15 11:12:03;;;;;;;0.90;0.43;;;;;;;24.99;60.82;98419.22;5132395;27;41844;-79
2022/10/15 11:14:45;;;;;;;2.23;0.60;;;;;;;24.97;59.64;98425.91;5129329;27;43533;-80
2022/10/15 11:17:24;;;;;;;1.33;0.57;;;;;;;24.61;59.23;98421.41;5114932;27;40796;-79
2022/10/15 11:20:00;;;;;;;1.23;0.40;;;;;;;24.17;59.71;98421.63;5132533;27;40459;-78
2022/10/15 11:22:45;;;;;;;0.70;0.67;;;;;;;23.74;60.75;98412.59;5133385;27;41719;-79
2022/10/15 11:25:22;;;;;;;1.60;0.57;;;;;;;23.45;60.83;98421.59;5130753;27;43789;-78
2022/10/15 11:28:05;;;;;;;0.53;0.53;;;;;;;23.10;61.76;98390.78;5133265;27;42073;-78
2022/10/15 11:30:44;;;;;;;1.43;0.70;;;;;;;23.07;61.99;98415.44;5131930;27;40132;-78
2022/10/15 11:33:39;;;;;;;0.70;0.50;;;;;;;22.83;63.00;98400.34;5114712;27;41588;-78
2022/10/15 11:36:23;;;;;;;0.60;0.60;;;;;;;22.67;63.12;98399.63;5146733;27;42814;-78
2022/10/15 11:39:00;;;;;;;0.50;0.50;;;;;;;22.52;63.90;98389.63;5132090;27;41058;-79
2022/10/15 11:41:37;;;;;;;1.03;0.60;;;;;;;22.53;64.30;98396.72;5132003;27;38619;-78
2022/10/15 11:44:22;;;;;;;0.70;0.50;;;;;;;22.50;64.50;98394.38;5132021;27;40948;-78
2022/10/15 11:47:02;;;;;;;1.00;0.60;;;;;;;22.29;64.14;98388.84;5131681;27;42945;-79
2022/10/15 11:49:43;;;;;;;0.50;0.50;;;;;;;22.20;64.34;98408.81;5114481;27;42461;-78
2022/10/15 11:52:29;;;;;;;1.57;0.50;;;;;;;22.18;65.10;98391.97;5147746;27;39843;-79
2022/10/15 11:55:04;;;;;;;0.73;0.50;;;;;;;22.32;64.70;98393.88;5132127;27;41008;-79
2022/10/15 11:57:35;;;;;;;0.50;0.50;;;;;;;22.42;64.34;98383.66;5131644;27;42978;-78
2022/10/15 12:00:19;;;;;;;0.47;0.40;;;;;;;22.42;64.44;98378.25;5133189;27;41976;-79
2022/10/15 12:02:51;;;;;;;0.53;0.53;;;;;;;22.50;64.42;98380.88;5131596;27;39021;-78
2022/10/15 12:05:26;;;;;;;0.50;0.50;;;;;;;22.56;64.60;98385.56;5129879;27;41495;-78
2022/10/15 12:07:55;;;;;;;0.67;0.50;;;;;;;22.61;64.46;98366.13;5129826;27;43604;-80
2022/10/15 12:10:36;;;;;;;0.60;0.60;;;;;;;22.91;64.11;98375.94;5132723;27;42159;-79
2022/10/15 12:13:10;;;;;;;0.83;0.83;;;;;;;23.53;62.68;98382.81;5114376;27;39559;-79
2022/10/15 12:15:49;;;;;;;0.50;0.50;;;;;;;23.69;61.65;98374.50;5145682;27;41872;-79
2022/10/15 12:18:23;;;;;;;0.43;0.43;;;;;;;23.93;61.52;98378.69;5131445;27;41529;-78
2022/10/15 12:20:54;;;;;;;0.47;0.47;;;;;;;23.94;60.95;98373.09;5145901;27;42160;-79
2022/10/15 12:23:24;;;;;;;0.60;0.60;;;;;;;24.13;60.66;98363.50;5133141;27;39809;-79
2022/10/15 12:25:53;;;;;;;0.40;0.40;;;;;;;24.17;61.14;98364.78;5132254;27;41387;-78
2022/10/15 12:28:23;;;;;;;0.50;0.30;;;;;;;24.05;61.00;98370.91;5113875;27;43038;-79
2022/10/15 12:31:01;;;;;;;0.30;0.30;;;;;;;23.84;60.42;98369.88;5128311;27;42113;-79
2022/10/15 12:33:35;;;;;;;0.60;0.60;;;;;;;23.65;61.28;98359.66;5128109;27;40612;-79
2022/10/15 12:36:08;;;;;;;0.40;0.40;;;;;;;23.62;60.80;98374.41;5130916;27;43592;-80
2022/10/15 12:38:39;;;;;;;0.53;0.53;;;;;;;23.46;61.22;98376.47;5129195;27;42810;-78
2022/10/15 12:41:09;;;;;;;0.43;0.43;;;;;;;23.32;62.06;98372.75;5130782;27;41229;-78
2022/10/15 12:47:54;;;;;;;0.90;0.50;;;;;;;25.04;59.61;98378.84;5132225;27;42403;-80
2022/10/15 12:50:24;;;;;;;0.50;0.50;;;;;;;25.68;56.28;98392.13;5130867;27;44512;-79
2022/10/15 12:53:00;;;;;;;0.73;0.70;;;;;;;25.77;55.43;98399.03;5113217;27;42234;-78
2022/10/15 12:55:34;;;;;;;1.33;0.53;;;;;;;25.59;55.07;98393.28;5130568;27;39049;-78
2022/10/15 12:58:06;;;;;;;0.93;0.50;;;;;;;26.48;53.94;98384.97;5130677;27;40798;-79
2022/10/15 13:00:41;;;;;;;2.27;1.30;;;;;;;26.73;53.22;98396.03;5147389;27;42398;-79
2022/10/15 13:03:28;;;;;;;1.53;1.43;;;;;;;27.34;52.41;98385.69;5144833;27;42142;-79
2022/10/15 13:05:56;;;;;;;0.90;0.60;;;;;;;27.30;50.25;98397.22;5113166;27;42239;-80
2022/10/15 13:08:44;;;;;;;0.53;0.50;;;;;;;27.68;49.51;98394.63;5127543;27;42567;-79
2022/10/15 13:11:21;;;;;;;1.30;0.73;;;;;;;28.82;47.33;98392.59;5130259;27;43890;-80
2022/10/15 13:13:50;;;;;;;1.70;0.67;;;;;;;29.53;44.65;98413.94;5130541;27;43008;-78
2022/10/15 13:16:19;;;;;;;0.40;0.40;;;;;;;30.17;43.86;98422.56;5131712;27;39748;-79
2022/10/15 13:18:52;;;;;;;1.13;0.73;;;;;;;30.91;42.11;98422.03;5147928;27;41503;-79
2022/10/15 13:21:20;;;;;;;0.60;0.60;;;;;;;29.71;42.42;98429.44;5129455;27;42689;-80
2022/10/15 13:23:50;;;;;;;1.23;0.90;;;;;;;28.46;44.57;98403.38;5131510;27;42991;-79
2022/10/15 13:26:21;;;;;;;0.87;0.80;;;;;;;27.40;47.03;98368.53;5130146;27;39032;-79
2022/10/15 13:28:49;;;;;;;2.50;0.70;;;;;;;26.88;48.50;98384.94;5130444;27;42339;-78
2022/10/15 13:31:22;;;;;;;1.43;0.73;;;;;;;26.36;49.61;98370.34;5129738;27;44140;-79
2022/10/15 13:33:54;;;;;;;0.80;0.60;;;;;;;26.30;49.44;98374.75;5130282;27;43004;-78
2022/10/15 13:36:25;;;;;;;0.70;0.70;;;;;;;26.46;49.59;98363.44;5130605;27;39027;-78
2022/10/15 13:38:56;;;;;;;1.27;0.73;;;;;;;26.40;50.17;98375.16;5132315;27;41645;-80
2022/10/15 13:41:27;;;;;;;1.03;0.70;;;;;;;25.87;50.02;98373.38;5131670;27;43531;-79
2022/10/15 13:43:57;;;;;;;0.70;0.70;;;;;;;25.48;50.57;98382.16;5133758;27;42404;-78
2022/10/15 13:46:26;;;;;;;2.20;1.13;;;;;;;25.08;51.93;98376.59;5148765;27;40695;-78
2022/10/15 13:49:00;;;;;;;2.10;0.60;;;;;;;24.74;52.48;98371.09;5133433;27;40491;-78
2022/10/15 13:51:33;;;;;;;1.77;0.60;;;;;;;24.36;53.55;98367.91;5133201;27;43008;-78
2022/10/15 13:54:02;;;;;;;1.70;0.70;;;;;;;24.08;54.25;98354.31;5133677;27;42250;-79
2022/10/15 13:56:32;;;;;;;1.80;0.63;;;;;;;23.94;55.11;98346.06;5135384;27;41081;-79
2022/10/15 13:59:02;;;;;;;0.83;0.63;;;;;;;23.70;55.55;98346.44;5133306;27;42085;-79
2022/10/15 14:01:31;;;;;;;2.10;0.60;;;;;;;23.52;56.23;98344.13;5133125;27;42720;-79
2022/10/15 14:04:02;;;;;;;3.13;0.50;;;;;;;23.34;56.71;98345.56;5116324;27;42305;-78
2022/10/15 14:06:31;;;;;;;2.07;0.70;;;;;;;23.16;57.34;98351.34;5133392;27;40060;-79
2022/10/15 14:09:01;;;;;;;3.63;0.70;;;;;;;22.93;57.69;98348.75;5133471;27;42495;-78
2022/10/15 14:11:30;;;;;;;1.90;0.67;;;;;;;22.85;58.07;98348.88;5133186;27;44316;-79
2022/10/15 14:13:58;;;;;;;1.13;0.67;;;;;;;22.74;58.09;98344.72;5134436;27;42312;-79
2022/10/15 14:16:29;;;;;;;2.33;0.57;;;;;;;22.66;58.80;98342.09;5132994;27;39042;-79
2022/10/15 14:19:08;;;;;;;0.97;0.50;;;;;;;22.53;59.11;98329.25;5131519;27;41580;-79
2022/10/15 14:21:46;;;;;;;0.60;0.40;;;;;;;22.40;59.85;98326.34;5132986;27;44212;-79
2022/10/15 14:24:17;;;;;;;1.27;0.70;;;;;;;22.31;60.47;98324.75;5116387;27;40997;-79
2022/10/15 14:26:45;;;;;;;0.83;0.53;;;;;;;22.12;60.88;98314.50;5132866;27;40395;-79
2022/10/15 14:29:19;;;;;;;0.83;0.50;;;;;;;22.08;61.19;98337.44;5134378;27;42670;-78
2022/10/15 14:31:49;;;;;;;1.23;0.90;;;;;;;21.91;60.71;98328.59;5133298;27;41633;-78
2022/10/15 14:34:29;;;;;;;1.23;0.50;;;;;;;21.81;61.32;98342.31;5132806;27;42223;-78
2022/10/15 14:36:58;;;;;;;0.60;0.50;;;;;;;21.74;61.55;98340.53;5131836;27;40030;-79
2022/10/15 14:39:30;;;;;;;0.43;0.40;;;;;;;21.67;61.91;98340.41;5134260;27;42753;-79
2022/10/15 14:41:59;;;;;;;1.37;0.60;;;;;;;21.64;62.31;98348.84;5133081;27;42045;-78
2022/10/15 14:44:40;;;;;;;0.90;0.53;;;;;;;21.63;62.47;98349.03;5150231;27;42205;-78
2022/10/15 14:47:19;;;;;;;1.90;0.47;;;;;;;21.60;62.71;98339.44;5133027;27;40096;-78
2022/10/15 14:49:48;;;;;;;1.07;0.50;;;;;;;21.57;62.50;98342.50;5130883;27;42083;-79
2022/10/15 14:52:20;;;;;;;0.40;0.40;;;;;;;21.50;62.72;98352.31;5132054;27;42887;-79
2022/10/15 14:55:00;;;;;;;1.40;0.60;;;;;;;21.36;62.79;98355.75;5132611;27;41080;-79
2022/10/15 14:57:30;;;;;;;2.27;0.70;;;;;;;21.31;62.90;98366.19;5115109;27;40524;-78
2022/10/15 14:59:59;;;;;;;1.47;0.60;;;;;;;21.11;63.31;98350.44;5132642;27;42256;-78
2022/10/15 15:02:29;;;;;;;0.97;0.50;;;;;;;21.10;63.80;98359.53;5131979;27;42738;-79
2022/10/15 15:05:17;;;;;;;1.33;0.57;;;;;;;21.04;64.08;98359.38;5133723;27;42340;-78
2022/10/15 15:07:48;;;;;;;2.47;0.57;;;;;;;20.72;63.81;98328.03;5132331;27;38671;-79
2022/10/15 15:10:16;;;;;;;0.80;0.60;;;;;;;20.77;64.13;98339.13;5132533;27;40790;-78
2022/10/15 15:12:49;;;;;;;5.63;0.70;;;;;;;20.83;64.70;98362.66;5114863;27;43348;-79
2022/10/15 15:15:19;;;;;;;1.50;0.70;;;;;;;20.71;64.63;98358.66;5115148;27;42434;-78
2022/10/15 15:17:48;;;;;;;0.50;0.43;;;;;;;20.70;64.67;98367.72;5115319;27;38831;-79
2022/10/15 15:20:18;;;;;;;1.53;0.50;;;;;;;20.67;65.24;98362.69;5133637;27;42770;-79
2022/10/15 15:22:50;;;;;;;1.83;0.60;;;;;;;20.62;65.62;98365.91;5114678;27;41926;-79
2022/10/15 15:25:21;;;;;;;1.60;0.80;;;;;;;20.53;65.98;98361.53;5146297;27;43035;-80
2022/10/15 15:27:48;;;;;;;0.87;0.70;;;;;;;20.43;65.98;98361.72;5150073;27;40644;-80
2022/10/15 15:30:18;;;;;;;0.50;0.40;;;;;;;20.36;66.70;98368.81;5133845;27;42667;-79
2022/10/15 15:32:46;;;;;;;1.10;0.60;;;;;;;20.27;66.78;98356.34;5133119;27;42940;-80
2022/10/15 15:35:21;;;;;;;0.50;0.47;;;;;;;20.29;66.91;98365.06;5133624;27;42674;-80
2022/10/15 15:37:53;;;;;;;2.03;0.60;;;;;;;20.18;67.30;98341.22;5133242;27;40248;-79
2022/10/15 15:40:21;;;;;;;2.67;0.47;;;;;;;20.25;67.76;98350.28;5133179;27;41780;-79
2022/10/15 15:42:49;;;;;;;0.77;0.63;;;;;;;20.02;67.76;98330.47;5131932;27;42006;-80
2022/10/15 15:45:19;;;;;;;1.13;1.03;;;;;;;20.11;68.08;98356.34;5149152;27;42081;-79
2022/10/15 15:47:47;;;;;;;1.13;0.50;;;;;;;20.09;68.41;98366.41;5132861;27;42768;-79
2022/10/15 15:50:16;;;;;;;0.80;0.50;;;;;;;20.07;68.35;98371.13;5114470;27;41885;-80
2022/10/15 15:52:43;;;;;;;0.53;0.50;;;;;;;19.91;68.32;98346.91;5131556;27;42796;-80
2022/10/15 15:55:14;;;;;;;0.77;0.70;;;;;;;19.99;68.88;98368.44;5114307;27;42716;-79
2022/10/15 15:57:44;;;;;;;0.83;0.70;;;;;;;19.90;68.99;98366.75;5132080;27;39865;-78
2022/10/15 16:00:13;;;;;;;0.77;0.70;;;;;;;19.79;68.79;98353.63;5131309;27;42035;-80
2022/10/15 16:02:41;;;;;;;1.40;0.70;;;;;;;19.92;69.21;98383.53;5113746;27;42134;-79
2022/10/15 16:05:12;;;;;;;1.23;0.70;;;;;;;19.88;69.09;98382.19;5133069;27;42992;-80
2022/10/15 16:07:40;;;;;;;2.77;0.57;;;;;;;19.85;69.33;98382.53;5131640;27;40135;-79
2022/10/15 16:10:10;;;;;;;0.60;0.60;;;;;;;19.82;69.62;98377.47;5132811;27;41701;-79
2022/10/15 16:12:40;;;;;;;4.33;1.07;;;;;;;19.82;69.70;98380.16;5131460;27;43143;-79
2022/10/15 16:15:09;;;;;;;2.33;0.70;;;;;;;19.51;69.50;98332.44;5114362;27;40808;-79
2022/10/15 16:17:37;;;;;;;0.80;0.70;;;;;;;19.74;70.12;98391.75;5131234;27;40239;-79
2022/10/15 16:20:06;;;;;;;0.60;0.60;;;;;;;19.71;70.09;98402.81;5131355;27;40898;-79
2022/10/15 16:22:33;;;;;;;0.67;0.67;;;;;;;19.68;70.35;98395.91;5131294;27;43593;-79
2022/10/15 16:25:01;;;;;;;0.70;0.70;;;;;;;19.67;70.31;98404.97;5149167;27;43118;-79
2022/10/15 16:27:29;;;;;;;1.60;0.70;;;;;;;19.64;70.54;98408.03;5131181;27;39909;-80
2022/10/15 16:29:58;;;;;;;2.27;1.83;;;;;;;19.62;70.38;98407.34;5131326;27;40966;-79
2022/10/15 16:32:26;;;;;;;1.23;1.07;;;;;;;19.59;70.79;98406.81;5130823;27;42707;-79
2022/10/15 16:34:53;;;;;;;0.63;0.63;;;;;;;19.50;70.91;98395.22;5131464;27;41403;-79
2022/10/15 16:37:21;;;;;;;0.80;0.77;;;;;;;19.30;70.74;98366.91;5130960;27;40339;-77
2022/10/15 16:39:50;;;;;;;3.50;0.83;;;;;;;19.40;71.33;98383.75;5114916;27;42429;-78
2022/10/15 16:42:17;;;;;;;1.57;0.73;;;;;;;19.37;71.25;98397.50;5114664;27;42379;-81
2022/10/15 16:44:45;;;;;;;0.80;0.70;;;;;;;19.32;71.68;98386.38;5132360;27;42398;-81
2022/10/15 16:47:14;;;;;;;1.27;0.80;;;;;;;19.41;72.00;98412.25;5132324;27;40900;-79
2022/10/15 16:49:42;;;;;;;1.20;0.93;;;;;;;19.29;72.38;98402.81;5133333;27;41789;-77
2022/10/15 16:52:10;;;;;;;2.90;1.00;;;;;;;19.23;72.74;98398.09;5114523;27;42610;-79
2022/10/15 16:54:38;;;;;;;0.80;0.80;;;;;;;19.05;72.30;98375.88;5132323;27;42408;-79
2022/10/15 16:57:06;;;;;;;1.00;0.70;;;;;;;19.34;72.33;98427.34;5132317;27;40758;-78
2022/10/15 16:59:33;;;;;;;0.70;0.60;;;;;;;19.33;72.53;98437.25;5133291;27;42813;-78
2022/10/15 17:02:01;;;;;;;1.47;1.20;;;;;;;19.25;72.45;98428.31;5114519;27;43354;-80
2022/10/15 17:04:31;;;;;;;0.67;0.67;;;;;;;19.32;72.70;98443.63;5114764;27;40841;-78
2022/10/15 17:06:59;;;;;;;3.07;0.73;;;;;;;19.31;73.05;98454.50;5114279;27;40769;-80
2022/10/15 17:09:26;;;;;;;2.50;0.80;;;;;;;19.30;72.80;98455.50;5130694;27;41088;-80
2022/10/15 17:11:54;;;;;;;0.97;0.70;;;;;;;19.28;72.72;98450.34;5130321;27;43462;-80
2022/10/15 17:14:22;;;;;;;2.60;0.80;;;;;;;19.30;73.07;98453.66;5151327;27;42210;-80
2022/10/15 17:16:51;;;;;;;1.00;0.90;;;;;;;19.28;73.40;98470.97;5134263;27;38971;-80
2022/10/15 17:19:22;;;;;;;1.53;0.60;;;;;;;19.27;73.23;98480.03;5135829;27;41835;-77
2022/10/15 17:21:54;;;;;;;1.83;0.70;;;;;;;19.25;73.75;98476.66;5133120;27;42574;-77
2022/10/15 17:24:22;;;;;;;0.90;0.70;;;;;;;19.22;73.46;98471.59;5132562;27;42229;-79
2022/10/15 17:26:50;;;;;;;0.70;0.60;;;;;;;19.21;73.57;98469.91;5134068;27;38685;-79
2022/10/15 17:29:21;;;;;;;1.80;0.80;;;;;;;19.15;74.15;98467.88;5135609;27;42555;-79
2022/10/15 17:31:50;;;;;;;1.47;0.80;;;;;;;19.05;74.55;98480.53;5133928;27;42527;-78
2022/10/15 17:34:20;;;;;;;1.00;0.87;;;;;;;19.01;74.39;98463.94;5117019;27;42657;-79
2022/10/15 17:36:49;;;;;;;1.10;0.80;;;;;;;19.02;75.13;98469.16;5135019;27;40922;-80
2022/10/15 17:39:21;;;;;;;0.90;0.90;;;;;;;19.00;75.02;98471.13;5135780;27;42400;-80
2022/10/15 17:41:49;;;;;;;0.60;0.60;;;;;;;19.00;75.33;98471.13;5133915;27;44816;-79
2022/10/15 17:44:17;;;;;;;1.23;0.90;;;;;;;19.04;75.06;98479.69;5134153;27;40611;-78
2022/10/15 17:46:45;;;;;;;1.30;0.90;;;;;;;19.04;74.95;98487.75;5151109;27;39763;-78
2022/10/15 17:49:17;;;;;;;1.93;0.73;;;;;;;18.92;75.47;98456.81;5135545;27;42775;-81
2022/10/15 17:51:45;;;;;;;1.57;0.80;;;;;;;18.99;75.67;98482.03;5132329;27;42796;-79
2022/10/15 17:54:13;;;;;;;2.03;0.97;;;;;;;18.86;75.58;98471.72;5134231;27;42072;-78
2022/10/15 17:56:43;;;;;;;2.83;0.80;;;;;;;18.90;75.63;98483.81;5116475;27;38892;-79
2022/10/15 17:59:12;;;;;;;3.33;0.80;;;;;;;18.81;76.27;98484.75;5135205;27;41695;-80
2022/10/15 18:01:41;;;;;;;0.73;0.73;;;;;;;18.74;76.22;98490.91;5134563;27;43701;-77
2022/10/15 18:04:11;;;;;;;0.73;0.73;;;;;;;18.62;77.04;98490.31;5116543;27;41908;-80
2022/10/15 18:06:38;;;;;;;3.53;0.83;;;;;;;18.55;77.22;98497.25;5116329;27;39289;-79
2022/10/15 18:09:06;;;;;;;1.83;0.97;;;;;;;18.48;77.61;98498.88;5133749;27;41040;-78
2022/10/15 18:11:35;;;;;;;0.80;0.70;;;;;;;18.45;78.04;98493.81;5133809;27;42712;-78
2022/10/15 18:14:04;;;;;;;1.07;0.90;;;;;;;18.48;78.04;98502.41;5133406;27;42935;-78
2022/10/15 18:16:32;;;;;;;1.00;0.80;;;;;;;18.53;77.62;98501.94;5132975;27;40454;-78
2022/10/15 18:19:00;;;;;;;1.13;0.80;;;;;;;18.58;77.46;98503.19;5135028;27;41813;-77
2022/10/15 18:21:27;;;;;;;0.87;0.83;;;;;;;18.60;77.51;98508.41;5115672;27;42877;-79
2022/10/15 18:23:56;;;;;;;0.83;0.80;;;;;;;18.61;77.47;98507.41;5133128;27;41245;-77
2022/10/15 18:26:24;;;;;;;2.73;0.70;;;;;;;18.59;77.54;98496.81;5134541;27;39933;-78
2022/10/15 18:28:53;;;;;;;0.77;0.77;;;;;;;18.60;77.47;98505.72;5133436;27;42255;-78
2022/10/15 18:31:24;;;;;;;0.83;0.70;;;;;;;18.62;77.32;98506.41;5133976;27;42711;-79
2022/10/15 18:33:55;;;;;;;1.63;0.77;;;;;;;18.64;77.13;98507.09;5131506;27;42315;-77
2022/10/15 18:36:25;;;;;;;3.27;0.90;;;;;;;18.65;77.20;98509.63;5132854;27;38946;-77
2022/10/15 18:38:54;;;;;;;1.23;0.80;;;;;;;18.67;77.23;98514.81;5134758;27;41536;-78
2022/10/15 18:41:24;;;;;;;0.97;0.87;;;;;;;18.67;77.45;98515.66;5132794;27;43797;-80
2022/10/15 18:43:53;;;;;;;0.97;0.97;;;;;;;18.49;77.31;98479.09;5133133;27;40951;-80
2022/10/15 18:46:22;;;;;;;0.70;0.70;;;;;;;18.67;77.39;98519.38;5133013;27;40535;-79
2022/10/15 18:48:51;;;;;;;1.00;0.90;;;;;;;18.66;77.31;98515.84;5150033;27;41808;-79
2022/10/15 18:51:23;;;;;;;1.73;0.80;;;;;;;18.69;77.88;98523.56;5130706;27;42900;-77
2022/10/15 18:53:52;;;;;;;1.27;0.67;;;;;;;18.57;77.38;98508.66;5133613;27;40641;-81
2022/10/15 18:56:20;;;;;;;0.80;0.80;;;;;;;18.72;77.49;98528.63;5133666;27;39366;-78
2022/10/15 18:58:48;;;;;;;1.47;1.00;;;;;;;18.74;77.36;98526.63;5133741;27;40793;-79
2022/10/15 19:01:26;;;;;;;0.93;0.90;;;;;;;18.76;77.57;98527.31;5133304;27;42135;-80
2022/10/15 19:03:53;;;;;;;0.97;0.70;;;;;;;18.77;77.32;98518.28;5134038;27;42586;-78
2022/10/15 19:06:22;;;;;;;0.70;0.70;;;;;;;18.76;77.47;98519.25;5115929;27;40043;-80
2022/10/15 19:08:51;;;;;;;0.77;0.77;;;;;;;18.76;77.40;98527.31;5133741;27;40924;-79
2022/10/15 19:11:19;;;;;;;1.53;0.73;;;;;;;18.76;77.33;98535.38;5134545;27;42948;-78
2022/10/15 19:13:46;;;;;;;0.80;0.80;;;;;;;18.78;77.55;98535.22;5133690;27;42287;-80
2022/10/15 19:16:14;;;;;;;1.97;0.80;;;;;;;18.71;77.18;98526.94;5132299;27;38784;-77
2022/10/15 19:18:46;;;;;;;1.07;0.90;;;;;;;18.83;77.32;98547.16;5133264;27;41310;-80
2022/10/15 19:21:14;;;;;;;0.90;0.90;;;;;;;18.85;77.11;98550.53;5132080;27;45761;-80
2022/10/15 19:23:41;;;;;;;1.40;0.97;;;;;;;18.79;77.06;98544.94;5149973;27;42917;-78
2022/10/15 19:26:12;;;;;;;0.97;0.80;;;;;;;18.83;77.18;98547.16;5149695;27;40134;-77
2022/10/15 19:28:39;;;;;;;1.83;0.73;;;;;;;18.87;76.97;98548.53;5132394;27;42202;-80
2022/10/15 19:31:09;;;;;;;1.10;0.97;;;;;;;18.88;77.02;98539.47;5131756;27;41827;-79
2022/10/15 19:33:38;;;;;;;1.93;1.10;;;;;;;18.88;76.79;98549.38;5132243;27;42576;-78
2022/10/15 19:36:08;;;;;;;1.13;0.80;;;;;;;18.88;76.99;98550.22;5130865;27;38758;-79
2022/10/15 19:38:35;;;;;;;1.23;0.73;;;;;;;18.83;77.01;98547.16;5132132;27;41783;-80
2022/10/15 19:41:06;;;;;;;0.70;0.70;;;;;;;18.87;76.99;98548.53;5134739;27;44399;-79
2022/10/15 19:43:34;;;;;;;0.50;0.50;;;;;;;18.83;77.10;98546.31;5152479;27;43173;-80
2022/10/15 19:46:03;;;;;;;0.83;0.60;;;;;;;18.80;77.19;98551.97;5135763;27;39908;-81
2022/10/15 19:48:31;;;;;;;0.60;0.60;;;;;;;18.84;77.12;98559.56;5117760;27;40716;-82
2022/10/15 19:51:02;;;;;;;0.83;0.63;;;;;;;18.83;77.03;98562.41;5117258;27;42298;-79
2022/10/15 19:53:31;;;;;;;1.37;0.70;;;;;;;18.73;77.40;98546.41;5132015;27;42965;-81
2022/10/15 19:56:01;;;;;;;1.80;0.83;;;;;;;18.56;78.08;98526.59;5116128;27;40274;-78
2022/10/15 19:58:29;;;;;;;0.77;0.70;;;;;;;18.67;78.30;98563.09;5134124;27;42836;-80
2022/10/15 20:00:56;;;;;;;0.97;0.97;;;;;;;18.65;78.08;98565.13;5132268;27;42697;-78
2022/10/15 20:03:26;;;;;;;2.13;1.10;;;;;;;18.62;78.26;98565.41;5132857;27;41405;-80
2022/10/15 20:05:55;;;;;;;0.83;0.83;;;;;;;18.61;78.14;98569.09;5149887;27;39716;-79
2022/10/15 20:08:23;;;;;;;1.87;0.80;;;;;;;18.58;78.84;98569.38;5132787;27;42823;-79
2022/10/15 20:10:53;;;;;;;1.03;0.80;;;;;;;18.54;78.80;98568.84;5148747;27;42980;-79
2022/10/15 20:13:22;;;;;;;0.80;0.80;;;;;;;18.44;78.68;98548.44;5132150;27;44242;-78
2022/10/15 20:15:52;;;;;;;1.47;1.00;;;;;;;18.47;78.84;98561.53;5114231;27;38904;-83
2022/10/15 20:18:21;;;;;;;2.17;0.80;;;;;;;18.40;78.90;98571.22;5131679;27;41834;-79
2022/10/15 20:20:49;;;;;;;0.70;0.70;;;;;;;18.29;79.54;98553.50;5132701;27;43409;-79
2022/10/15 20:23:17;;;;;;;1.57;0.73;;;;;;;18.26;79.77;98576.09;5132872;27;42659;-80
2022/10/15 20:25:45;;;;;;;1.60;0.93;;;;;;;18.22;79.75;98566.66;5130903;27;40595;-79
2022/10/15 20:28:16;;;;;;;2.30;0.90;;;;;;;18.27;79.93;98566.22;5132970;27;41640;-79
2022/10/15 20:30:46;;;;;;;0.87;0.87;;;;;;;18.29;79.78;98574.94;5131765;27;41750;-81
2022/10/15 20:33:13;;;;;;;1.53;0.90;;;;;;;18.32;79.56;98574.63;5131517;27;42192;-79
2022/10/15 20:35:41;;;;;;;2.33;1.00;;;;;;;18.34;80.16;98571.78;5131585;27;39933;-79
2022/10/15 20:38:09;;;;;;;1.23;1.00;;;;;;;18.04;79.53;98528.28;5131195;27;41204;-78
2022/10/15 20:40:40;;;;;;;2.10;1.00;;;;;;;18.35;79.63;98570.81;5113208;27;42375;-81
2022/10/15 20:43:08;;;;;;;1.57;0.90;;;;;;;18.43;79.48;98581.59;5127656;27;43353;-83
2022/10/15 20:45:44;;;;;;;1.10;1.00;;;;;;;18.44;79.36;98584.13;5130747;27;40733;-81
2022/10/15 20:48:17;;;;;;;0.80;0.80;;;;;;;18.11;79.74;98545.44;5127167;27;41792;-82
2022/10/15 20:50:47;;;;;;;0.70;0.70;;;;;;;18.37;79.66;98587.59;5113573;27;41852;-81